createdAt,value
2018-04-22T00:00:38.895Z,1014.96
2018-04-22T00:01:38.808Z,1014.96
2018-04-22T00:02:38.819Z,1014.96
2018-04-22T00:03:38.885Z,1014.93
2018-04-22T00:04:38.855Z,1014.90
2018-04-22T00:05:38.854Z,1014.89
2018-04-22T00:06:38.874Z,1014.84
2018-04-22T00:07:38.883Z,1014.83
2018-04-22T00:08:38.919Z,1014.82
2018-04-22T00:09:38.909Z,1014.79
2018-04-22T00:10:38.925Z,1014.81
2018-04-22T00:11:38.924Z,1014.82
2018-04-22T00:12:38.935Z,1014.79
2018-04-22T00:13:38.988Z,1014.80
2018-04-22T00:14:39.000Z,1014.83
2018-04-22T00:15:38.999Z,1014.84
2018-04-22T00:16:39.000Z,1014.78
2018-04-22T00:17:39.076Z,1014.79
2018-04-22T00:18:39.018Z,1014.81
2018-04-22T00:19:39.070Z,1014.78
2018-04-22T00:20:39.047Z,1014.75
2018-04-22T00:21:39.039Z,1014.75
2018-04-22T00:22:39.082Z,1014.78
2018-04-22T00:23:39.060Z,1014.79
2018-04-22T00:24:39.145Z,1014.80
2018-04-22T00:25:39.311Z,1014.82
2018-04-22T00:26:39.160Z,1014.77
2018-04-22T00:27:39.127Z,1014.76
2018-04-22T00:28:39.136Z,1014.77
2018-04-22T00:29:39.145Z,1014.77
2018-04-22T00:30:39.211Z,1014.76
2018-04-22T00:31:39.235Z,1014.71
2018-04-22T00:32:39.182Z,1014.75
2018-04-22T00:33:39.184Z,1014.76
2018-04-22T00:34:39.206Z,1014.75
2018-04-22T00:35:39.224Z,1014.74
2018-04-22T00:36:39.263Z,1014.74
2018-04-22T00:37:39.247Z,1014.72
2018-04-22T00:38:39.278Z,1014.76
2018-04-22T00:39:39.279Z,1014.69
2018-04-22T00:40:39.275Z,1014.72
2018-04-22T00:41:39.336Z,1014.69
2018-04-22T00:42:39.296Z,1014.70
2018-04-22T00:43:39.331Z,1014.72
2018-04-22T00:44:39.333Z,1014.69
2018-04-22T00:45:39.345Z,1014.68
2018-04-22T00:46:39.424Z,1014.69
2018-04-22T00:47:39.360Z,1014.73
2018-04-22T00:48:39.380Z,1014.68
2018-04-22T00:49:39.382Z,1014.67
2018-04-22T00:50:39.395Z,1014.66
2018-04-22T00:51:39.460Z,1014.65
2018-04-22T00:52:39.423Z,1014.63
2018-04-22T00:53:39.452Z,1014.63
2018-04-22T00:54:39.507Z,1014.65
2018-04-22T00:55:39.449Z,1014.66
2018-04-22T00:56:39.467Z,1014.66
2018-04-22T00:57:39.501Z,1014.65
2018-04-22T00:58:39.514Z,1014.64
2018-04-22T00:59:39.554Z,1014.63
2018-04-22T01:00:39.508Z,1014.63
2018-04-22T01:01:39.540Z,1014.65
2018-04-22T01:02:39.561Z,1014.62
2018-04-22T01:03:39.550Z,1014.66
2018-04-22T01:04:39.604Z,1014.66
2018-04-22T01:05:39.581Z,1014.64
2018-04-22T01:06:39.594Z,1014.67
2018-04-22T01:07:39.593Z,1014.61
2018-04-22T01:08:39.616Z,1014.62
2018-04-22T01:09:39.682Z,1014.62
2018-04-22T01:10:39.696Z,1014.63
2018-04-22T01:11:39.649Z,1014.66
2018-04-22T01:12:39.660Z,1014.64
2018-04-22T01:13:39.676Z,1014.64
2018-04-22T01:14:39.700Z,1014.68
2018-04-22T01:15:39.754Z,1014.66
2018-04-22T01:16:39.700Z,1014.64
2018-04-22T01:17:39.725Z,1014.64
2018-04-22T01:18:39.753Z,1014.66
2018-04-22T01:19:39.762Z,1014.66
2018-04-22T01:20:39.786Z,1014.68
2018-04-22T01:21:39.762Z,1014.64
2018-04-22T01:22:39.845Z,1014.62
2018-04-22T01:23:39.795Z,1014.64
2018-04-22T01:24:39.795Z,1014.64
2018-04-22T01:25:39.835Z,1014.62
2018-04-22T01:26:39.870Z,1014.61
2018-04-22T01:27:39.877Z,1014.61
2018-04-22T01:28:39.845Z,1014.67
2018-04-22T01:29:39.899Z,1014.64
2018-04-22T01:30:39.881Z,1014.64
2018-04-22T01:31:39.899Z,1014.61
2018-04-22T01:32:39.931Z,1014.57
2018-04-22T01:33:39.920Z,1014.60
2018-04-22T01:34:39.920Z,1014.63
2018-04-22T01:35:39.940Z,1014.64
2018-04-22T01:36:39.959Z,1014.62
2018-04-22T01:37:40.008Z,1014.62
2018-04-22T01:38:40.038Z,1014.61
2018-04-22T01:39:39.985Z,1014.63
2018-04-22T01:40:40.001Z,1014.60
2018-04-22T01:41:40.198Z,1014.60
2018-04-22T01:42:40.016Z,1014.64
2018-04-22T01:43:40.067Z,1014.61
2018-04-22T01:44:40.101Z,1014.60
2018-04-22T01:45:40.062Z,1014.62
2018-04-22T01:46:40.052Z,1014.65
2018-04-22T01:47:40.094Z,1014.60
2018-04-22T01:48:40.123Z,1014.61
2018-04-22T01:49:40.218Z,1014.60
2018-04-22T01:50:40.118Z,1014.65
2018-04-22T01:51:40.121Z,1014.63
2018-04-22T01:52:40.187Z,1014.61
2018-04-22T01:53:40.159Z,1014.60
2018-04-22T01:54:40.169Z,1014.65
2018-04-22T01:55:40.242Z,1014.64
2018-04-22T01:56:40.173Z,1014.61
2018-04-22T01:57:40.243Z,1014.59
2018-04-22T01:58:40.197Z,1014.58
2018-04-22T01:59:40.241Z,1014.58
2018-04-22T02:00:40.231Z,1014.59
2018-04-22T02:01:40.284Z,1014.57
2018-04-22T02:02:40.274Z,1014.56
2018-04-22T02:03:40.279Z,1014.57
2018-04-22T02:04:40.263Z,1014.60
2018-04-22T02:05:40.285Z,1014.59
2018-04-22T02:06:40.309Z,1014.59
2018-04-22T02:07:40.365Z,1014.56
2018-04-22T02:08:40.318Z,1014.57
2018-04-22T02:09:40.332Z,1014.49
2018-04-22T02:10:40.359Z,1014.52
2018-04-22T02:11:40.337Z,1014.53
2018-04-22T02:12:40.404Z,1014.53
2018-04-22T02:13:40.371Z,1014.52
2018-04-22T02:14:40.389Z,1014.49
2018-04-22T02:15:40.394Z,1014.47
2018-04-22T02:16:40.399Z,1014.46
2018-04-22T02:17:40.460Z,1014.47
2018-04-22T02:18:40.446Z,1014.45
2018-04-22T02:19:40.512Z,1014.48
2018-04-22T02:20:40.459Z,1014.43
2018-04-22T02:21:40.515Z,1014.51
2018-04-22T02:22:40.522Z,1014.46
2018-04-22T02:23:40.483Z,1014.47
2018-04-22T02:24:40.501Z,1014.44
2018-04-22T02:25:40.514Z,1014.44
2018-04-22T02:26:40.518Z,1014.41
2018-04-22T02:27:40.576Z,1014.39
2018-04-22T02:28:40.579Z,1014.38
2018-04-22T02:29:40.566Z,1014.36
2018-04-22T02:30:40.574Z,1014.33
2018-04-22T02:31:40.579Z,1014.35
2018-04-22T02:32:40.641Z,1014.34
2018-04-22T02:33:40.622Z,1014.34
2018-04-22T02:34:40.659Z,1014.34
2018-04-22T02:35:40.640Z,1014.34
2018-04-22T02:36:40.688Z,1014.39
2018-04-22T02:37:40.637Z,1014.37
2018-04-22T02:38:40.661Z,1014.34
2018-04-22T02:39:40.688Z,1014.30
2018-04-22T02:40:40.678Z,1014.32
2018-04-22T02:41:40.706Z,1014.32
2018-04-22T02:42:40.750Z,1014.32
2018-04-22T02:43:40.778Z,1014.28
2018-04-22T02:44:40.739Z,1014.29
2018-04-22T02:45:40.737Z,1014.27
2018-04-22T02:46:40.747Z,1014.26
2018-04-22T02:47:40.765Z,1014.24
2018-04-22T02:48:40.816Z,1014.26
2018-04-22T02:49:40.776Z,1014.22
2018-04-22T02:50:40.806Z,1014.24
2018-04-22T02:51:40.797Z,1014.22
2018-04-22T02:52:40.835Z,1014.18
2018-04-22T02:53:40.864Z,1014.23
2018-04-22T02:54:40.830Z,1014.20
2018-04-22T02:55:40.854Z,1014.17
2018-04-22T02:56:40.863Z,1014.15
2018-04-22T02:57:40.872Z,1014.16
2018-04-22T02:58:40.920Z,1014.13
2018-04-22T02:59:40.927Z,1014.14
2018-04-22T03:00:40.910Z,1014.16
2018-04-22T03:01:40.916Z,1014.16
2018-04-22T03:02:40.923Z,1014.14
2018-04-22T03:03:40.939Z,1014.14
2018-04-22T03:04:41.003Z,1014.09
2018-04-22T03:05:40.969Z,1014.09
2018-04-22T03:06:40.977Z,1014.11
2018-04-22T03:07:40.975Z,1014.12
2018-04-22T03:08:40.995Z,1014.10
2018-04-22T03:09:41.072Z,1014.03
2018-04-22T03:10:41.007Z,1014.04
2018-04-22T03:11:41.018Z,1014.04
2018-04-22T03:12:41.039Z,1014.02
2018-04-22T03:13:41.050Z,1014.01
2018-04-22T03:14:41.096Z,1013.98
2018-04-22T03:15:41.101Z,1013.99
2018-04-22T03:16:41.080Z,1013.96
2018-04-22T03:17:41.093Z,1013.96
2018-04-22T03:18:41.109Z,1013.95
2018-04-22T03:19:41.210Z,1013.96
2018-04-22T03:20:41.131Z,1014.03
2018-04-22T03:21:41.132Z,1014.00
2018-04-22T03:22:41.140Z,1013.99
2018-04-22T03:23:41.171Z,1013.98
2018-04-22T03:24:41.244Z,1013.98
2018-04-22T03:25:41.174Z,1013.98
2018-04-22T03:26:41.195Z,1013.96
2018-04-22T03:27:41.211Z,1013.98
2018-04-22T03:28:41.213Z,1013.95
2018-04-22T03:29:41.265Z,1013.95
2018-04-22T03:30:41.329Z,1013.98
2018-04-22T03:31:41.265Z,1013.99
2018-04-22T03:32:41.251Z,1014.00
2018-04-22T03:33:41.277Z,1013.99
2018-04-22T03:34:41.323Z,1014.01
2018-04-22T03:35:41.299Z,1013.96
2018-04-22T03:36:41.318Z,1013.95
2018-04-22T03:37:41.322Z,1013.95
2018-04-22T03:38:41.335Z,1013.90
2018-04-22T03:39:41.354Z,1013.90
2018-04-22T03:40:41.403Z,1013.88
2018-04-22T03:41:41.401Z,1013.86
2018-04-22T03:42:41.409Z,1013.88
2018-04-22T03:43:41.373Z,1013.87
2018-04-22T03:44:41.393Z,1013.87
2018-04-22T03:45:41.398Z,1013.88
2018-04-22T03:46:41.449Z,1013.88
2018-04-22T03:47:41.458Z,1013.87
2018-04-22T03:48:41.479Z,1013.89
2018-04-22T03:49:41.466Z,1013.86
2018-04-22T03:50:41.454Z,1013.88
2018-04-22T03:51:41.471Z,1013.87
2018-04-22T03:52:41.539Z,1013.84
2018-04-22T03:53:41.573Z,1013.88
2018-04-22T03:54:41.507Z,1013.86
2018-04-22T03:55:41.547Z,1013.90
2018-04-22T03:56:41.546Z,1013.90
2018-04-22T03:57:41.539Z,1013.88
2018-04-22T03:58:41.584Z,1013.85
2018-04-22T03:59:41.576Z,1013.90
2018-04-22T04:00:41.593Z,1013.87
2018-04-22T04:01:41.627Z,1013.88
2018-04-22T04:02:41.604Z,1013.91
2018-04-22T04:03:41.619Z,1013.91
2018-04-22T04:04:41.647Z,1013.92
2018-04-22T04:05:41.625Z,1013.90
2018-04-22T04:06:41.712Z,1013.94
2018-04-22T04:07:41.650Z,1013.92
2018-04-22T04:08:41.658Z,1013.90
2018-04-22T04:09:41.677Z,1013.89
2018-04-22T04:10:41.686Z,1013.90
2018-04-22T04:11:41.736Z,1013.86
2018-04-22T04:12:41.751Z,1013.88
2018-04-22T04:13:41.717Z,1013.90
2018-04-22T04:14:41.738Z,1013.88
2018-04-22T04:15:41.733Z,1013.88
2018-04-22T04:16:41.808Z,1013.89
2018-04-22T04:17:41.967Z,1013.91
2018-04-22T04:18:41.807Z,1013.89
2018-04-22T04:19:41.783Z,1013.88
2018-04-22T04:20:41.798Z,1013.87
2018-04-22T04:21:41.796Z,1013.90
2018-04-22T04:22:41.860Z,1013.94
2018-04-22T04:23:41.855Z,1013.97
2018-04-22T04:24:41.859Z,1013.96
2018-04-22T04:25:41.841Z,1013.95
2018-04-22T04:26:41.860Z,1014.00
2018-04-22T04:27:42.290Z,1013.95
2018-04-22T04:28:41.894Z,1013.94
2018-04-22T04:29:41.901Z,1013.97
2018-04-22T04:30:42.064Z,1013.97
2018-04-22T04:31:41.918Z,1013.92
2018-04-22T04:32:41.925Z,1013.91
2018-04-22T04:33:41.970Z,1013.92
2018-04-22T04:34:41.970Z,1013.93
2018-04-22T04:35:41.976Z,1013.96
2018-04-22T04:36:41.988Z,1013.96
2018-04-22T04:37:42.015Z,1013.93
2018-04-22T04:38:42.044Z,1013.94
2018-04-22T04:39:42.009Z,1013.92
2018-04-22T04:40:42.022Z,1013.89
2018-04-22T04:41:42.038Z,1013.91
2018-04-22T04:42:42.051Z,1013.92
2018-04-22T04:43:42.088Z,1013.92
2018-04-22T04:44:42.067Z,1013.94
2018-04-22T04:45:42.068Z,1013.97
2018-04-22T04:46:42.120Z,1013.95
2018-04-22T04:47:42.113Z,1014.01
2018-04-22T04:48:42.138Z,1013.96
2018-04-22T04:49:42.170Z,1013.99
2018-04-22T04:50:42.138Z,1013.99
2018-04-22T04:51:42.186Z,1013.99
2018-04-22T04:52:42.173Z,1014.03
2018-04-22T04:53:42.168Z,1014.05
2018-04-22T04:54:42.233Z,1014.09
2018-04-22T04:55:42.196Z,1014.14
2018-04-22T04:56:42.218Z,1014.13
2018-04-22T04:57:42.251Z,1014.15
2018-04-22T04:58:42.220Z,1014.11
2018-04-22T04:59:42.246Z,1014.11
2018-04-22T05:00:42.245Z,1014.09
2018-04-22T05:01:42.305Z,1014.06
2018-04-22T05:02:42.374Z,1014.04
2018-04-22T05:03:42.274Z,1014.00
2018-04-22T05:04:42.303Z,1013.99
2018-04-22T05:05:42.309Z,1014.02
2018-04-22T05:06:42.339Z,1013.99
2018-04-22T05:07:42.362Z,1014.03
2018-04-22T05:08:42.378Z,1014.06
2018-04-22T05:09:42.417Z,1014.11
2018-04-22T05:10:42.392Z,1014.03
2018-04-22T05:11:42.401Z,1014.04
2018-04-22T05:12:42.396Z,1014.05
2018-04-22T05:13:42.454Z,1014.06
2018-04-22T05:14:42.761Z,1014.08
2018-04-22T05:15:42.452Z,1014.11
2018-04-22T05:16:42.463Z,1014.05
2018-04-22T05:17:42.473Z,1014.07
2018-04-22T05:18:42.494Z,1014.04
2018-04-22T05:19:42.486Z,1014.00
2018-04-22T05:20:42.559Z,1013.98
2018-04-22T05:21:42.505Z,1013.99
2018-04-22T05:22:42.564Z,1013.96
2018-04-22T05:23:42.565Z,1014.01
2018-04-22T05:24:42.567Z,1013.93
2018-04-22T05:25:42.621Z,1013.99
2018-04-22T05:26:42.585Z,1013.99
2018-04-22T05:27:42.638Z,1013.94
2018-04-22T05:28:42.625Z,1013.96
2018-04-22T05:29:42.647Z,1013.96
2018-04-22T05:30:42.796Z,1013.97
2018-04-22T05:31:42.714Z,1013.95
2018-04-22T05:32:42.728Z,1013.99
2018-04-22T05:33:42.690Z,1014.02
2018-04-22T05:34:42.701Z,1014.00
2018-04-22T05:35:42.714Z,1014.00
2018-04-22T05:36:42.765Z,1014.01
2018-04-22T05:37:42.778Z,1013.97
2018-04-22T05:38:42.772Z,1013.87
2018-04-22T05:39:42.790Z,1013.91
2018-04-22T05:40:42.816Z,1013.88
2018-04-22T05:41:42.838Z,1013.88
2018-04-22T05:42:42.880Z,1013.87
2018-04-22T05:43:42.825Z,1013.85
2018-04-22T05:44:42.848Z,1013.80
2018-04-22T05:45:42.873Z,1013.81
2018-04-22T05:46:42.872Z,1013.77
2018-04-22T05:47:42.944Z,1013.78
2018-04-22T05:48:42.905Z,1013.78
2018-04-22T05:49:43.042Z,1013.77
2018-04-22T05:50:42.950Z,1013.72
2018-04-22T05:51:42.971Z,1013.73
2018-04-22T05:52:43.046Z,1013.73
2018-04-22T05:53:42.973Z,1013.76
2018-04-22T05:54:43.028Z,1013.76
2018-04-22T05:55:43.031Z,1013.78
2018-04-22T05:56:43.085Z,1013.80
2018-04-22T05:57:43.057Z,1013.78
2018-04-22T05:58:43.081Z,1013.76
2018-04-22T05:59:43.116Z,1013.76
2018-04-22T06:00:43.074Z,1013.76
2018-04-22T06:01:43.100Z,1013.77
2018-04-22T06:02:43.092Z,1013.73
2018-04-22T06:03:43.125Z,1013.75
2018-04-22T06:04:43.198Z,1013.70
2018-04-22T06:05:43.158Z,1013.68
2018-04-22T06:06:43.171Z,1013.72
2018-04-22T06:07:43.175Z,1013.69
2018-04-22T06:08:43.181Z,1013.73
2018-04-22T06:09:43.244Z,1013.72
2018-04-22T06:10:43.233Z,1013.68
2018-04-22T06:11:43.213Z,1013.69
2018-04-22T06:12:43.254Z,1013.73
2018-04-22T06:13:43.356Z,1013.71
2018-04-22T06:14:43.299Z,1013.70
2018-04-22T06:15:43.301Z,1013.74
2018-04-22T06:16:43.307Z,1013.78
2018-04-22T06:17:43.294Z,1013.88
2018-04-22T06:18:43.308Z,1013.83
2018-04-22T06:19:43.362Z,1013.73
2018-04-22T06:20:43.375Z,1013.84
2018-04-22T06:21:43.388Z,1013.89
2018-04-22T06:22:43.382Z,1013.71
2018-04-22T06:23:43.391Z,1013.74
2018-04-22T06:24:43.435Z,1013.66
2018-04-22T06:25:43.413Z,1013.54
2018-04-22T06:26:43.412Z,1013.55
2018-04-22T06:27:43.438Z,1013.55
2018-04-22T06:28:43.464Z,1013.59
2018-04-22T06:29:43.489Z,1013.60
2018-04-22T06:30:43.524Z,1013.59
2018-04-22T06:31:43.497Z,1013.57
2018-04-22T06:32:43.505Z,1013.53
2018-04-22T06:33:43.511Z,1013.54
2018-04-22T06:34:43.520Z,1013.52
2018-04-22T06:35:43.592Z,1013.51
2018-04-22T06:36:43.641Z,1013.46
2018-04-22T06:37:43.571Z,1013.51
2018-04-22T06:38:43.605Z,1013.49
2018-04-22T06:39:43.595Z,1013.51
2018-04-22T06:40:43.690Z,1013.50
2018-04-22T06:41:43.622Z,1013.48
2018-04-22T06:42:43.656Z,1013.48
2018-04-22T06:43:43.677Z,1013.50
2018-04-22T06:44:43.677Z,1013.51
2018-04-22T06:45:43.729Z,1013.50
2018-04-22T06:46:43.695Z,1013.53
2018-04-22T06:47:43.715Z,1013.49
2018-04-22T06:48:43.773Z,1013.46
2018-04-22T06:49:43.726Z,1013.47
2018-04-22T06:50:43.784Z,1013.48
2018-04-22T06:51:43.854Z,1013.48
2018-04-22T06:52:43.772Z,1013.47
2018-04-22T06:53:43.803Z,1013.48
2018-04-22T06:54:44.090Z,1013.42
2018-04-22T06:55:43.811Z,1013.41
2018-04-22T06:56:43.881Z,1013.43
2018-04-22T06:57:43.829Z,1013.38
2018-04-22T06:58:43.915Z,1013.40
2018-04-22T06:59:43.857Z,1013.37
2018-04-22T07:00:43.881Z,1013.37
2018-04-22T07:01:43.934Z,1013.39
2018-04-22T07:02:43.902Z,1013.35
2018-04-22T07:03:43.921Z,1013.37
2018-04-22T07:04:43.968Z,1013.32
2018-04-22T07:05:43.948Z,1013.33
2018-04-22T07:06:44.002Z,1013.34
2018-04-22T07:07:43.978Z,1013.35
2018-04-22T07:08:43.995Z,1013.34
2018-04-22T07:09:44.006Z,1013.35
2018-04-22T07:10:44.023Z,1013.33
2018-04-22T07:11:44.075Z,1013.31
2018-04-22T07:12:44.043Z,1013.30
2018-04-22T07:13:44.055Z,1013.31
2018-04-22T07:14:44.067Z,1013.30
2018-04-22T07:15:44.120Z,1013.31
2018-04-22T07:16:44.169Z,1013.28
2018-04-22T07:17:44.186Z,1013.28
2018-04-22T07:18:44.133Z,1013.29
2018-04-22T07:19:44.142Z,1013.25
2018-04-22T07:20:44.154Z,1013.23
2018-04-22T07:21:44.209Z,1013.22
2018-04-22T07:22:44.315Z,1013.22
2018-04-22T07:23:44.231Z,1013.23
2018-04-22T07:24:44.195Z,1013.25
2018-04-22T07:25:44.232Z,1013.25
2018-04-22T07:26:44.249Z,1013.26
2018-04-22T07:27:44.244Z,1013.28
2018-04-22T07:28:44.294Z,1013.26
2018-04-22T07:29:44.267Z,1013.27
2018-04-22T07:30:44.279Z,1013.28
2018-04-22T07:31:44.313Z,1013.32
2018-04-22T07:32:44.379Z,1013.30
2018-04-22T07:33:44.364Z,1013.30
2018-04-22T07:34:44.334Z,1013.29
2018-04-22T07:35:44.346Z,1013.29
2018-04-22T07:36:44.364Z,1013.24
2018-04-22T07:37:44.377Z,1013.24
2018-04-22T07:38:44.408Z,1013.26
2018-04-22T07:39:44.406Z,1013.23
2018-04-22T07:40:44.466Z,1013.20
2018-04-22T07:41:44.411Z,1013.21
2018-04-22T07:42:44.447Z,1013.18
2018-04-22T07:43:44.445Z,1013.15
2018-04-22T07:44:44.481Z,1013.20
2018-04-22T07:45:44.618Z,1013.17
2018-04-22T07:46:44.495Z,1013.16
2018-04-22T07:47:44.702Z,1013.15
2018-04-22T07:48:44.523Z,1013.17
2018-04-22T07:49:44.615Z,1013.15
2018-04-22T07:50:44.629Z,1013.17
2018-04-22T07:51:44.617Z,1013.20
2018-04-22T07:52:44.575Z,1013.21
2018-04-22T07:53:44.633Z,1013.25
2018-04-22T07:54:44.605Z,1013.25
2018-04-22T07:55:44.636Z,1013.26
2018-04-22T07:56:44.686Z,1013.24
2018-04-22T07:57:44.637Z,1013.24
2018-04-22T07:58:44.657Z,1013.20
2018-04-22T07:59:44.666Z,1013.21
2018-04-22T08:00:44.680Z,1013.25
2018-04-22T08:01:44.749Z,1013.27
2018-04-22T08:02:44.688Z,1013.26
2018-04-22T08:03:44.724Z,1013.25
2018-04-22T08:04:44.719Z,1013.25
2018-04-22T08:05:44.738Z,1013.26
2018-04-22T08:06:44.825Z,1013.27
2018-04-22T08:07:44.774Z,1013.22
2018-04-22T08:08:44.805Z,1013.26
2018-04-22T08:09:44.815Z,1013.25
2018-04-22T08:10:44.798Z,1013.23
2018-04-22T08:11:44.859Z,1013.27
2018-04-22T08:12:44.830Z,1013.22
2018-04-22T08:13:44.839Z,1013.22
2018-04-22T08:14:44.868Z,1013.24
2018-04-22T08:15:44.885Z,1013.17
2018-04-22T08:16:44.920Z,1013.15
2018-04-22T08:17:44.922Z,1013.15
2018-04-22T08:18:44.906Z,1013.19
2018-04-22T08:19:44.991Z,1013.18
2018-04-22T08:20:44.956Z,1013.17
2018-04-22T08:21:44.949Z,1013.18
2018-04-22T08:22:44.979Z,1013.18
2018-04-22T08:23:45.007Z,1013.17
2018-04-22T08:24:45.041Z,1013.19
2018-04-22T08:25:44.997Z,1013.14
2018-04-22T08:26:45.069Z,1013.15
2018-04-22T08:27:45.041Z,1013.11
2018-04-22T08:28:45.071Z,1013.12
2018-04-22T08:29:45.167Z,1013.10
2018-04-22T08:30:45.079Z,1013.10
2018-04-22T08:31:45.123Z,1013.08
2018-04-22T08:32:45.131Z,1013.13
2018-04-22T08:33:45.117Z,1013.09
2018-04-22T08:34:45.164Z,1013.07
2018-04-22T08:35:45.163Z,1013.09
2018-04-22T08:36:45.251Z,1013.05
2018-04-22T08:37:45.171Z,1013.04
2018-04-22T08:38:45.173Z,1013.04
2018-04-22T08:39:45.240Z,1013.05
2018-04-22T08:40:45.231Z,1013.00
2018-04-22T08:41:45.253Z,1012.99
2018-04-22T08:42:45.238Z,1012.99
2018-04-22T08:43:45.312Z,1012.97
2018-04-22T08:44:45.319Z,1012.96
2018-04-22T08:45:45.284Z,1012.96
2018-04-22T08:46:45.291Z,1012.95
2018-04-22T08:47:45.316Z,1012.99
2018-04-22T08:48:45.352Z,1012.98
2018-04-22T08:49:45.340Z,1012.99
2018-04-22T08:50:45.447Z,1012.95
2018-04-22T08:51:45.378Z,1012.96
2018-04-22T08:52:45.373Z,1012.98
2018-04-22T08:53:45.449Z,1012.98
2018-04-22T08:54:45.399Z,1012.99
2018-04-22T08:55:45.407Z,1012.97
2018-04-22T08:56:45.479Z,1012.90
2018-04-22T08:57:45.482Z,1012.93
2018-04-22T08:58:45.489Z,1012.85
2018-04-22T08:59:45.460Z,1012.88
2018-04-22T09:00:45.490Z,1012.85
2018-04-22T09:01:45.535Z,1012.89
2018-04-22T09:02:45.508Z,1012.89
2018-04-22T09:03:45.551Z,1012.86
2018-04-22T09:04:45.559Z,1012.83
2018-04-22T09:05:45.564Z,1012.83
2018-04-22T09:06:45.602Z,1012.82
2018-04-22T09:07:45.577Z,1012.86
2018-04-22T09:08:45.598Z,1012.83
2018-04-22T09:09:45.602Z,1012.81
2018-04-22T09:10:45.616Z,1012.81
2018-04-22T09:11:45.679Z,1012.79
2018-04-22T09:12:45.668Z,1012.74
2018-04-22T09:13:45.663Z,1012.74
2018-04-22T09:14:45.677Z,1012.75
2018-04-22T09:15:45.694Z,1012.73
2018-04-22T09:16:45.729Z,1012.69
2018-04-22T09:17:45.708Z,1012.68
2018-04-22T09:18:45.766Z,1012.71
2018-04-22T09:19:45.742Z,1012.66
2018-04-22T09:20:45.761Z,1012.65
2018-04-22T09:21:45.760Z,1012.62
2018-04-22T09:22:45.767Z,1012.55
2018-04-22T09:23:45.904Z,1012.51
2018-04-22T09:24:45.892Z,1012.51
2018-04-22T09:25:45.849Z,1012.48
2018-04-22T09:26:45.943Z,1012.45
2018-04-22T09:27:45.952Z,1012.44
2018-04-22T09:28:45.883Z,1012.41
2018-04-22T09:29:45.903Z,1012.38
2018-04-22T09:30:45.988Z,1012.33
2018-04-22T09:31:45.906Z,1012.36
2018-04-22T09:32:45.970Z,1012.37
2018-04-22T09:33:45.968Z,1012.36
2018-04-22T09:34:45.945Z,1012.40
2018-04-22T09:35:45.978Z,1012.42
2018-04-22T09:36:45.984Z,1012.39
2018-04-22T09:37:46.007Z,1012.40
2018-04-22T09:38:46.023Z,1012.40
2018-04-22T09:39:46.004Z,1012.37
2018-04-22T09:40:46.096Z,1012.37
2018-04-22T09:41:46.069Z,1012.38
2018-04-22T09:42:46.205Z,1012.31
2018-04-22T09:43:46.081Z,1012.28
2018-04-22T09:44:46.080Z,1012.25
2018-04-22T09:45:46.092Z,1012.19
2018-04-22T09:46:46.115Z,1012.20
2018-04-22T09:47:46.161Z,1012.12
2018-04-22T09:48:46.157Z,1012.14
2018-04-22T09:49:46.158Z,1012.15
2018-04-22T09:50:46.328Z,1012.14
2018-04-22T09:51:46.174Z,1012.11
2018-04-22T09:52:46.186Z,1012.13
2018-04-22T09:53:46.201Z,1012.09
2018-04-22T09:54:46.223Z,1012.07
2018-04-22T09:55:46.251Z,1012.11
2018-04-22T09:56:46.284Z,1012.08
2018-04-22T09:57:46.288Z,1012.06
2018-04-22T09:58:46.281Z,1012.04
2018-04-22T09:59:46.303Z,1012.07
2018-04-22T10:00:46.302Z,1012.06
2018-04-22T10:01:46.353Z,1012.08
2018-04-22T10:02:46.325Z,1012.02
2018-04-22T10:03:46.358Z,1012.04
2018-04-22T10:04:46.388Z,1012.07
2018-04-22T10:05:46.438Z,1012.07
2018-04-22T10:06:46.384Z,1012.03
2018-04-22T10:07:46.434Z,1012.00
2018-04-22T10:08:46.411Z,1012.03
2018-04-22T10:09:46.439Z,1012.00
2018-04-22T10:10:46.467Z,1012.03
2018-04-22T10:11:46.527Z,1012.02
2018-04-22T10:12:46.525Z,1012.01
2018-04-22T10:13:46.480Z,1011.98
2018-04-22T10:14:46.678Z,1012.00
2018-04-22T10:15:46.537Z,1011.98
2018-04-22T10:16:46.527Z,1011.98
2018-04-22T10:17:46.541Z,1012.00
2018-04-22T10:18:46.649Z,1011.99
2018-04-22T10:19:46.622Z,1011.96
2018-04-22T10:20:46.635Z,1011.99
2018-04-22T10:21:46.601Z,1011.96
2018-04-22T10:22:46.627Z,1011.95
2018-04-22T10:23:46.635Z,1011.98
2018-04-22T10:24:46.695Z,1011.98
2018-04-22T10:25:46.681Z,1011.99
2018-04-22T10:26:46.670Z,1011.98
2018-04-22T10:27:46.770Z,1011.92
2018-04-22T10:28:46.703Z,1011.90
2018-04-22T10:29:46.702Z,1011.90
2018-04-22T10:30:46.715Z,1011.85
2018-04-22T10:31:46.750Z,1011.85
2018-04-22T10:32:46.799Z,1011.84
2018-04-22T10:33:46.756Z,1011.86
2018-04-22T10:34:46.817Z,1011.84
2018-04-22T10:35:46.800Z,1011.83
2018-04-22T10:36:46.801Z,1011.80
2018-04-22T10:37:46.859Z,1011.81
2018-04-22T10:38:46.924Z,1011.79
2018-04-22T10:39:46.865Z,1011.75
2018-04-22T10:40:46.867Z,1011.77
2018-04-22T10:41:46.926Z,1011.73
2018-04-22T10:42:46.914Z,1011.73
2018-04-22T10:43:46.905Z,1011.70
2018-04-22T10:44:46.926Z,1011.66
2018-04-22T10:45:46.936Z,1011.65
2018-04-22T10:46:46.995Z,1011.65
2018-04-22T10:47:47.008Z,1011.66
2018-04-22T10:48:46.987Z,1011.67
2018-04-22T10:49:47.012Z,1011.58
2018-04-22T10:50:47.010Z,1011.62
2018-04-22T10:51:47.047Z,1011.56
2018-04-22T10:52:47.064Z,1011.60
2018-04-22T10:53:47.071Z,1011.58
2018-04-22T10:54:47.091Z,1011.57
2018-04-22T10:55:47.082Z,1011.61
2018-04-22T10:56:47.089Z,1011.58
2018-04-22T10:57:47.101Z,1011.59
2018-04-22T10:58:47.125Z,1011.55
2018-04-22T10:59:47.199Z,1011.59
2018-04-22T11:00:47.163Z,1011.54
2018-04-22T11:01:47.213Z,1011.55
2018-04-22T11:02:47.192Z,1011.57
2018-04-22T11:03:47.223Z,1011.59
2018-04-22T11:04:47.245Z,1011.59
2018-04-22T11:05:47.216Z,1011.60
2018-04-22T11:06:47.232Z,1011.52
2018-04-22T11:07:47.267Z,1011.50
2018-04-22T11:08:47.288Z,1011.51
2018-04-22T11:09:47.323Z,1011.46
2018-04-22T11:10:47.326Z,1011.45
2018-04-22T11:11:47.325Z,1011.47
2018-04-22T11:12:47.319Z,1011.46
2018-04-22T11:13:47.338Z,1011.42
2018-04-22T11:14:47.523Z,1011.43
2018-04-22T11:15:47.380Z,1011.42
2018-04-22T11:16:47.391Z,1011.38
2018-04-22T11:17:47.475Z,1011.35
2018-04-22T11:18:47.443Z,1011.33
2018-04-22T11:19:47.442Z,1011.35
2018-04-22T11:20:47.436Z,1011.36
2018-04-22T11:21:47.462Z,1011.32
2018-04-22T11:22:47.517Z,1011.32
2018-04-22T11:23:47.479Z,1011.29
2018-04-22T11:24:47.519Z,1011.30
2018-04-22T11:25:47.523Z,1011.29
2018-04-22T11:26:47.538Z,1011.30
2018-04-22T11:27:47.591Z,1011.32
2018-04-22T11:28:47.571Z,1011.31
2018-04-22T11:29:47.565Z,1011.30
2018-04-22T11:30:47.601Z,1011.24
2018-04-22T11:31:47.619Z,1011.22
2018-04-22T11:32:47.655Z,1011.21
2018-04-22T11:33:47.645Z,1011.23
2018-04-22T11:34:47.853Z,1011.22
2018-04-22T11:35:47.668Z,1011.18
2018-04-22T11:36:47.677Z,1011.16
2018-04-22T11:37:47.731Z,1011.15
2018-04-22T11:38:47.707Z,1011.07
2018-04-22T11:39:47.753Z,1011.07
2018-04-22T11:40:47.741Z,1011.03
2018-04-22T11:41:47.776Z,1011.04
2018-04-22T11:42:47.923Z,1011.08
2018-04-22T11:43:47.784Z,1011.08
2018-04-22T11:44:47.832Z,1011.09
2018-04-22T11:45:47.810Z,1011.09
2018-04-22T11:46:47.857Z,1011.13
2018-04-22T11:47:47.892Z,1011.10
2018-04-22T11:48:47.928Z,1011.11
2018-04-22T11:49:47.908Z,1011.10
2018-04-22T11:50:47.891Z,1011.14
2018-04-22T11:51:47.929Z,1011.11
2018-04-22T11:52:47.918Z,1011.10
2018-04-22T11:53:47.931Z,1011.08
2018-04-22T11:54:47.946Z,1011.10
2018-04-22T11:55:48.022Z,1011.06
2018-04-22T11:56:47.979Z,1011.06
2018-04-22T11:57:47.988Z,1011.04
2018-04-22T11:58:48.003Z,1011.02
2018-04-22T11:59:48.086Z,1010.98
2018-04-22T12:00:48.089Z,1010.98
2018-04-22T12:01:48.086Z,1010.91
2018-04-22T12:02:48.101Z,1010.92
2018-04-22T12:03:48.108Z,1010.92
2018-04-22T12:04:48.082Z,1010.86
2018-04-22T12:05:48.127Z,1010.87